Aviation Digital Data Service (ADDS)

Output produced by METARs form (1551 UTC 26 September 2021)
found at http://www.aviationweather.gov/metar/data/
 
KSAV 261453Z 35006KT 10SM CLR 25/16 A3014 RMK AO2 SLP206 T02500156 51009
KSAV 261120Z 2612/2712 00000KT P6SM SKC 
     FM261400 33005KT P6SM SKC 
     FM262200 14005KT P6SM SKC
       
KSVN 261456Z AUTO 32004KT 10SM CLR 26/17 A3012 RMK AO2 SLP203 T02580169 52010 $
TAF KSVN 261200Z 2612/2718 VRB06KT 9999 SKC QNH3005INS 
     BECMG 2622/2623 14006KT 9999 SKC QNH3001INS TX26/2618Z TN14/2612Z
       
KLHW 261456Z AUTO 29005KT 10SM CLR 25/16 A3012 RMK AO2 SLP202 T02460155 51010 $
KTBR 261535Z AUTO 28003KT 10SM CLR 25/14 A3015 RMK AO2 T02460135
KVDI 261535Z AUTO 31004KT 10SM CLR 26/15 A3017 RMK AO2
KJYL 261535Z AUTO 31003KT 10SM CLR 26/14 A3016 RMK AO2 T02570142
KDBN 261535Z AUTO 32003KT 10SM CLR 26/12 A3018 RMK AO2
KJES 261535Z AUTO 00000KT 10SM CLR 26/13 A3018 RMK AO2
KSSI 261453Z AUTO 35006KT 10SM CLR 26/15 A3014 RMK AO2 SLP206 T02560150 51009 TSNO
KSSI 261131Z 2612/2712 VRB06KT P6SM SKC 
     FM261700 10010KT P6SM SKC 
     FM270100 VRB04KT P6SM SKC
       
KBQK 261535Z AUTO 33005KT 10SM CLR 26/14 A3015 RMK AO2 T02590140
KAYS 261535Z AUTO 04006KT 10SM CLR 27/14 A3015 RMK AO2 T02660140
KNBC 261456Z AUTO 31004KT CLR 26/15 A3014 RMK AO2 SLP207 T02610150 $
KHXD 261550Z 00000KT 10SM CLR 26/15 A3015